New Franklin, Missouri
Current Conditions -  °F | °C
As of 10:35 PM on Saturday 25 Oct 2014 (Local Time) from KVER Reporting Station
Clear Clear  
Wind Chill: 62°   Ceiling: Unl
Heat Index: 62°   Visibility: 10mi
Dew Point: 51°   Wind: 5mph
Humidity: 66%   Direction: 60°ENE
Pressure: 30.02"   Gusts: NA
Location:  39.02°N, 92.74°W
Report Text: KVER 260335Z AUTO 06004KT 10SM CLR 17/10 A3002 RMK AO2 T01670104
Loading
Personal Weather Stations






























Interactive Weather Map
Tropical Storm Tracking
New forecast layout! Learn more

10-Day Weather Forecast

Advertisements
Track Severe Weather on mobile